sensor_id;sensor_type;location;lat;lon;timestamp;temperature;humidity
24744;DHT22;12844;52.110;5.548;2022-09-09T00:00:26;25.50;50.90
24744;DHT22;12844;52.110;5.548;2022-09-09T00:05:47;25.50;50.80
24744;DHT22;12844;52.110;5.548;2022-09-09T00:08:24;25.50;50.80
24744;DHT22;12844;52.110;5.548;2022-09-09T00:11:00;25.50;50.80
24744;DHT22;12844;52.110;5.548;2022-09-09T00:13:44;25.50;50.80
24744;DHT22;12844;52.110;5.548;2022-09-09T00:21:41;25.50;50.80
24744;DHT22;12844;52.110;5.548;2022-09-09T00:24:29;25.50;50.80
24744;DHT22;12844;52.110;5.548;2022-09-09T00:27:04;25.50;50.80
24744;DHT22;12844;52.110;5.548;2022-09-09T00:29:38;25.50;50.80
24744;DHT22;12844;52.110;5.548;2022-09-09T00:32:13;25.50;50.80
24744;DHT22;12844;52.110;5.548;2022-09-09T00:37:32;25.50;50.80
24744;DHT22;12844;52.110;5.548;2022-09-09T00:40:02;25.50;50.80
24744;DHT22;12844;52.110;5.548;2022-09-09T00:42:52;25.50;50.80
24744;DHT22;12844;52.110;5.548;2022-09-09T00:45:49;25.50;50.70
24744;DHT22;12844;52.110;5.548;2022-09-09T00:48:16;25.50;50.70
24744;DHT22;12844;52.110;5.548;2022-09-09T00:50:53;25.50;50.80
24744;DHT22;12844;52.110;5.548;2022-09-09T00:53:51;25.50;50.80
24744;DHT22;12844;52.110;5.548;2022-09-09T00:56:25;25.50;50.80
24744;DHT22;12844;52.110;5.548;2022-09-09T01:01:35;25.40;50.80
24744;DHT22;12844;52.110;5.548;2022-09-09T01:04:06;25.50;50.80
24744;DHT22;12844;52.110;5.548;2022-09-09T01:06:36;25.40;50.70
24744;DHT22;12844;52.110;5.548;2022-09-09T01:09:30;25.50;50.80
24744;DHT22;12844;52.110;5.548;2022-09-09T01:12:24;25.50;50.70
24744;DHT22;12844;52.110;5.548;2022-09-09T01:15:08;25.50;50.70
24744;DHT22;12844;52.110;5.548;2022-09-09T01:20:25;25.40;50.70
24744;DHT22;12844;52.110;5.548;2022-09-09T01:28:16;25.40;50.70
24744;DHT22;12844;52.110;5.548;2022-09-09T01:30:44;25.40;50.70
24744;DHT22;12844;52.110;5.548;2022-09-09T06:43:16;25.00;50.30
24744;DHT22;12844;52.110;5.548;2022-09-09T06:45:43;25.00;50.30
24744;DHT22;12844;52.110;5.548;2022-09-09T06:48:17;25.00;50.30
24744;DHT22;12844;52.110;5.548;2022-09-09T06:50:42;25.00;50.30
24744;DHT22;12844;52.110;5.548;2022-09-09T06:53:08;25.00;50.20
24744;DHT22;12844;52.110;5.548;2022-09-09T06:55:34;25.00;50.20
24744;DHT22;12844;52.110;5.548;2022-09-09T06:58:00;25.00;50.30
24744;DHT22;12844;52.110;5.548;2022-09-09T07:00:25;25.00;50.20
24744;DHT22;12844;52.110;5.548;2022-09-09T07:02:51;25.00;50.10
24744;DHT22;12844;52.110;5.548;2022-09-09T07:05:16;25.00;50.10
24744;DHT22;12844;52.110;5.548;2022-09-09T07:07:42;25.00;50.10
24744;DHT22;12844;52.110;5.548;2022-09-09T07:10:08;25.00;50.10
24744;DHT22;12844;52.110;5.548;2022-09-09T07:12:34;25.00;50.10
24744;DHT22;12844;52.110;5.548;2022-09-09T07:14:59;25.00;50.20
24744;DHT22;12844;52.110;5.548;2022-09-09T07:17:25;25.00;50.10
24744;DHT22;12844;52.110;5.548;2022-09-09T07:19:53;25.00;50.20
24744;DHT22;12844;52.110;5.548;2022-09-09T07:22:19;25.00;50.10
24744;DHT22;12844;52.110;5.548;2022-09-09T07:24:45;25.00;50.10
24744;DHT22;12844;52.110;5.548;2022-09-09T07:27:11;25.00;50.10
24744;DHT22;12844;52.110;5.548;2022-09-09T07:29:36;25.00;50.10
24744;DHT22;12844;52.110;5.548;2022-09-09T07:32:02;25.00;50.10
24744;DHT22;12844;52.110;5.548;2022-09-09T07:34:29;25.00;50.10
24744;DHT22;12844;52.110;5.548;2022-09-09T07:36:55;25.00;50.70
24744;DHT22;12844;52.110;5.548;2022-09-09T07:39:22;25.00;50.10
24744;DHT22;12844;52.110;5.548;2022-09-09T07:41:48;25.00;50.10
24744;DHT22;12844;52.110;5.548;2022-09-09T07:44:17;25.10;50.10
24744;DHT22;12844;52.110;5.548;2022-09-09T07:46:42;25.10;50.20
24744;DHT22;12844;52.110;5.548;2022-09-09T07:49:09;25.00;50.10
24744;DHT22;12844;52.110;5.548;2022-09-09T07:51:38;25.00;50.00
24744;DHT22;12844;52.110;5.548;2022-09-09T07:54:06;25.00;50.00
24744;DHT22;12844;52.110;5.548;2022-09-09T07:56:33;25.00;50.00
24744;DHT22;12844;52.110;5.548;2022-09-09T07:58:59;25.00;50.10
24744;DHT22;12844;52.110;5.548;2022-09-09T08:01:29;25.00;50.10
24744;DHT22;12844;52.110;5.548;2022-09-09T08:03:58;25.00;50.10
24744;DHT22;12844;52.110;5.548;2022-09-09T08:06:25;25.00;50.10
24744;DHT22;12844;52.110;5.548;2022-09-09T08:08:52;25.00;50.10
24744;DHT22;12844;52.110;5.548;2022-09-09T08:11:18;25.00;50.10
24744;DHT22;12844;52.110;5.548;2022-09-09T08:13:44;25.00;50.10
24744;DHT22;12844;52.110;5.548;2022-09-09T08:16:12;25.00;50.10
24744;DHT22;12844;52.110;5.548;2022-09-09T08:18:38;25.00;50.10
24744;DHT22;12844;52.110;5.548;2022-09-09T08:21:09;25.00;50.10
24744;DHT22;12844;52.110;5.548;2022-09-09T08:23:40;25.00;50.10
24744;DHT22;12844;52.110;5.548;2022-09-09T08:26:13;25.00;50.10
24744;DHT22;12844;52.110;5.548;2022-09-09T08:28:39;25.00;50.10
24744;DHT22;12844;52.110;5.548;2022-09-09T08:31:10;25.00;50.10
24744;DHT22;12844;52.110;5.548;2022-09-09T08:33:37;25.00;50.10
24744;DHT22;12844;52.110;5.548;2022-09-09T08:36:04;25.00;50.10
24744;DHT22;12844;52.110;5.548;2022-09-09T08:38:30;25.00;50.10
24744;DHT22;12844;52.110;5.548;2022-09-09T08:41:07;25.00;50.10
24744;DHT22;12844;52.110;5.548;2022-09-09T08:43:36;25.00;50.10
24744;DHT22;12844;52.110;5.548;2022-09-09T08:46:30;25.00;50.10
24744;DHT22;12844;52.110;5.548;2022-09-09T08:49:05;25.00;50.10
24744;DHT22;12844;52.110;5.548;2022-09-09T08:51:32;25.00;50.10
24744;DHT22;12844;52.110;5.548;2022-09-09T08:54:00;25.00;50.10
24744;DHT22;12844;52.110;5.548;2022-09-09T08:56:27;25.00;50.10
24744;DHT22;12844;52.110;5.548;2022-09-09T08:58:56;25.00;50.10
24744;DHT22;12844;52.110;5.548;2022-09-09T09:04:38;25.00;50.00
24744;DHT22;12844;52.110;5.548;2022-09-09T09:12:47;25.00;50.10
24744;DHT22;12844;52.110;5.548;2022-09-09T09:15:22;25.00;50.10
24744;DHT22;12844;52.110;5.548;2022-09-09T09:17:48;25.00;50.00
24744;DHT22;12844;52.110;5.548;2022-09-09T09:20:18;24.90;50.00
24744;DHT22;12844;52.110;5.548;2022-09-09T09:22:49;25.00;50.00
24744;DHT22;12844;52.110;5.548;2022-09-09T09:25:25;24.90;50.60
24744;DHT22;12844;52.110;5.548;2022-09-09T09:28:16;25.00;50.00
24744;DHT22;12844;52.110;5.548;2022-09-09T09:31:05;25.00;50.00
24744;DHT22;12844;52.110;5.548;2022-09-09T09:33:50;25.00;50.00
24744;DHT22;12844;52.110;5.548;2022-09-09T09:36:19;24.90;50.00
24744;DHT22;12844;52.110;5.548;2022-09-09T09:39:02;24.90;50.10
24744;DHT22;12844;52.110;5.548;2022-09-09T09:43:59;24.90;50.00
24744;DHT22;12844;52.110;5.548;2022-09-09T09:46:27;24.90;50.00
24744;DHT22;12844;52.110;5.548;2022-09-09T09:49:02;24.90;50.00
24744;DHT22;12844;52.110;5.548;2022-09-09T09:51:31;24.90;50.00
24744;DHT22;12844;52.110;5.548;2022-09-09T09:56:40;25.00;50.00
24744;DHT22;12844;52.110;5.548;2022-09-09T09:59:23;24.90;50.00
24744;DHT22;12844;52.110;5.548;2022-09-09T10:02:13;24.90;50.00
24744;DHT22;12844;52.110;5.548;2022-09-09T10:04:39;24.90;50.00
24744;DHT22;12844;52.110;5.548;2022-09-09T10:07:24;24.90;50.10
24744;DHT22;12844;52.110;5.548;2022-09-09T10:09:54;24.90;49.90
24744;DHT22;12844;52.110;5.548;2022-09-09T10:15:24;24.90;50.00
24744;DHT22;12844;52.110;5.548;2022-09-09T10:20:38;24.90;50.10
24744;DHT22;12844;52.110;5.548;2022-09-09T10:29:20;24.90;50.00
24744;DHT22;12844;52.110;5.548;2022-09-09T10:34:55;24.80;50.00
24744;DHT22;12844;52.110;5.548;2022-09-09T10:42:47;24.90;50.10
24744;DHT22;12844;52.110;5.548;2022-09-09T10:45:20;24.80;50.00
24744;DHT22;12844;52.110;5.548;2022-09-09T10:53:36;24.90;49.90
24744;DHT22;12844;52.110;5.548;2022-09-09T10:56:15;24.90;50.00
24744;DHT22;12844;52.110;5.548;2022-09-09T10:58:48;24.90;50.00
24744;DHT22;12844;52.110;5.548;2022-09-09T11:01:20;24.80;50.70
24744;DHT22;12844;52.110;5.548;2022-09-09T11:03:52;24.90;50.10
24744;DHT22;12844;52.110;5.548;2022-09-09T11:06:24;24.90;50.10
24744;DHT22;12844;52.110;5.548;2022-09-09T11:08:53;24.90;50.10
24744;DHT22;12844;52.110;5.548;2022-09-09T11:11:42;24.90;50.10
24744;DHT22;12844;52.110;5.548;2022-09-09T11:14:19;25.00;50.10
24744;DHT22;12844;52.110;5.548;2022-09-09T11:17:03;25.00;50.20
24744;DHT22;12844;52.110;5.548;2022-09-09T11:19:36;24.90;50.20
24744;DHT22;12844;52.110;5.548;2022-09-09T11:25:16;25.00;50.30
24744;DHT22;12844;52.110;5.548;2022-09-09T11:33:23;25.00;50.30
24744;DHT22;12844;52.110;5.548;2022-09-09T11:41:05;25.00;50.30
24744;DHT22;12844;52.110;5.548;2022-09-09T11:43:39;25.00;50.30
24744;DHT22;12844;52.110;5.548;2022-09-09T11:46:06;25.00;50.20
24744;DHT22;12844;52.110;5.548;2022-09-09T11:48:43;25.10;50.20
24744;DHT22;12844;52.110;5.548;2022-09-09T11:53:59;25.10;50.20
24744;DHT22;12844;52.110;5.548;2022-09-09T11:56:33;25.10;50.20
24744;DHT22;12844;52.110;5.548;2022-09-09T11:59:05;25.00;50.10
24744;DHT22;12844;52.110;5.548;2022-09-09T12:01:43;25.00;50.30
24744;DHT22;12844;52.110;5.548;2022-09-09T12:04:14;25.00;50.30
24744;DHT22;12844;52.110;5.548;2022-09-09T12:06:46;25.00;50.30
24744;DHT22;12844;52.110;5.548;2022-09-09T12:14:43;25.00;50.30
24744;DHT22;12844;52.110;5.548;2022-09-09T12:17:20;25.00;50.30
24744;DHT22;12844;52.110;5.548;2022-09-09T12:19:48;25.00;50.30
24744;DHT22;12844;52.110;5.548;2022-09-09T12:25:02;25.00;50.30
24744;DHT22;12844;52.110;5.548;2022-09-09T12:27:35;25.00;50.30
24744;DHT22;12844;52.110;5.548;2022-09-09T12:30:11;25.00;50.30
24744;DHT22;12844;52.110;5.548;2022-09-09T12:32:38;25.00;50.30
24744;DHT22;12844;52.110;5.548;2022-09-09T12:35:14;25.00;50.30
24744;DHT22;12844;52.110;5.548;2022-09-09T12:37:48;25.00;50.30
24744;DHT22;12844;52.110;5.548;2022-09-09T12:42:48;25.00;50.30
24744;DHT22;12844;52.110;5.548;2022-09-09T12:45:21;25.00;50.30
24744;DHT22;12844;52.110;5.548;2022-09-09T12:50:20;24.90;50.30
24744;DHT22;12844;52.110;5.548;2022-09-09T12:52:47;25.00;50.30
24744;DHT22;12844;52.110;5.548;2022-09-09T12:55:24;25.00;50.40
24744;DHT22;12844;52.110;5.548;2022-09-09T12:57:51;25.00;50.30
24744;DHT22;12844;52.110;5.548;2022-09-09T13:00:20;25.00;50.40
24744;DHT22;12844;52.110;5.548;2022-09-09T13:02:50;25.00;50.40
24744;DHT22;12844;52.110;5.548;2022-09-09T13:05:28;25.00;50.30
24744;DHT22;12844;52.110;5.548;2022-09-09T16:17:02;25.00;50.90
24744;DHT22;12844;52.110;5.548;2022-09-09T16:19:28;25.00;50.90
24744;DHT22;12844;52.110;5.548;2022-09-09T16:21:54;25.00;50.90
24744;DHT22;12844;52.110;5.548;2022-09-09T16:24:20;25.00;51.00
24744;DHT22;12844;52.110;5.548;2022-09-09T16:26:47;25.00;51.00
24744;DHT22;12844;52.110;5.548;2022-09-09T16:29:15;25.00;51.00
24744;DHT22;12844;52.110;5.548;2022-09-09T16:31:42;25.00;51.00
24744;DHT22;12844;52.110;5.548;2022-09-09T16:34:08;25.00;51.00
24744;DHT22;12844;52.110;5.548;2022-09-09T16:36:36;24.90;51.00
24744;DHT22;12844;52.110;5.548;2022-09-09T16:39:08;25.00;51.00
24744;DHT22;12844;52.110;5.548;2022-09-09T16:41:34;25.00;51.10
24744;DHT22;12844;52.110;5.548;2022-09-09T16:44:05;25.00;51.10
24744;DHT22;12844;52.110;5.548;2022-09-09T16:46:35;25.00;51.10
24744;DHT22;12844;52.110;5.548;2022-09-09T16:49:03;25.00;51.20
24744;DHT22;12844;52.110;5.548;2022-09-09T16:51:41;25.00;51.20
24744;DHT22;12844;52.110;5.548;2022-09-09T16:54:08;25.00;51.20
24744;DHT22;12844;52.110;5.548;2022-09-09T16:56:37;25.00;51.20
24744;DHT22;12844;52.110;5.548;2022-09-09T16:59:08;25.00;51.20
24744;DHT22;12844;52.110;5.548;2022-09-09T17:01:36;25.00;51.20
24744;DHT22;12844;52.110;5.548;2022-09-09T17:04:05;25.00;51.30
24744;DHT22;12844;52.110;5.548;2022-09-09T17:06:32;25.00;51.30
24744;DHT22;12844;52.110;5.548;2022-09-09T17:09:01;25.00;51.40
24744;DHT22;12844;52.110;5.548;2022-09-09T17:11:27;25.00;51.50
24744;DHT22;12844;52.110;5.548;2022-09-09T17:13:54;25.00;51.60
24744;DHT22;12844;52.110;5.548;2022-09-09T17:16:21;25.00;51.50
24744;DHT22;12844;52.110;5.548;2022-09-09T17:18:48;25.00;51.60
24744;DHT22;12844;52.110;5.548;2022-09-09T17:21:16;25.00;51.60
24744;DHT22;12844;52.110;5.548;2022-09-09T17:23:42;25.00;51.60
24744;DHT22;12844;52.110;5.548;2022-09-09T17:26:10;25.00;51.60
24744;DHT22;12844;52.110;5.548;2022-09-09T17:28:37;25.00;51.60
24744;DHT22;12844;52.110;5.548;2022-09-09T17:31:08;25.00;51.60
24744;DHT22;12844;52.110;5.548;2022-09-09T17:33:38;25.00;51.60
24744;DHT22;12844;52.110;5.548;2022-09-09T17:36:14;25.00;52.20
24744;DHT22;12844;52.110;5.548;2022-09-09T17:38:41;25.00;51.60
24744;DHT22;12844;52.110;5.548;2022-09-09T17:41:13;25.00;51.70
24744;DHT22;12844;52.110;5.548;2022-09-09T17:43:39;25.00;51.80
24744;DHT22;12844;52.110;5.548;2022-09-09T17:46:22;24.90;51.60
24744;DHT22;12844;52.110;5.548;2022-09-09T17:48:49;25.00;51.60
24744;DHT22;12844;52.110;5.548;2022-09-09T17:51:18;25.00;51.60
24744;DHT22;12844;52.110;5.548;2022-09-09T17:53:53;25.00;51.50
24744;DHT22;12844;52.110;5.548;2022-09-09T17:56:21;25.00;51.50
24744;DHT22;12844;52.110;5.548;2022-09-09T17:58:48;25.00;51.40
24744;DHT22;12844;52.110;5.548;2022-09-09T18:01:18;25.00;51.40
24744;DHT22;12844;52.110;5.548;2022-09-09T18:03:45;25.00;51.40
24744;DHT22;12844;52.110;5.548;2022-09-09T18:06:14;25.00;51.40
24744;DHT22;12844;52.110;5.548;2022-09-09T18:08:47;25.00;51.30
24744;DHT22;12844;52.110;5.548;2022-09-09T18:11:13;25.00;51.30
24744;DHT22;12844;52.110;5.548;2022-09-09T18:13:38;25.00;51.30
24744;DHT22;12844;52.110;5.548;2022-09-09T18:16:09;25.00;51.30
24744;DHT22;12844;52.110;5.548;2022-09-09T18:18:34;25.00;51.20
24744;DHT22;12844;52.110;5.548;2022-09-09T18:21:03;25.00;51.20
24744;DHT22;12844;52.110;5.548;2022-09-09T18:23:34;24.90;51.20
24744;DHT22;12844;52.110;5.548;2022-09-09T18:26:00;24.90;51.20
24744;DHT22;12844;52.110;5.548;2022-09-09T18:28:26;24.90;51.20
24744;DHT22;12844;52.110;5.548;2022-09-09T18:30:52;24.90;51.20
24744;DHT22;12844;52.110;5.548;2022-09-09T18:33:17;24.90;51.20
24744;DHT22;12844;52.110;5.548;2022-09-09T18:35:43;24.90;51.20
24744;DHT22;12844;52.110;5.548;2022-09-09T18:38:10;24.90;51.20
24744;DHT22;12844;52.110;5.548;2022-09-09T18:40:36;24.90;51.20
24744;DHT22;12844;52.110;5.548;2022-09-09T18:43:02;24.90;51.20
24744;DHT22;12844;52.110;5.548;2022-09-09T18:45:27;24.90;51.20
24744;DHT22;12844;52.110;5.548;2022-09-09T18:47:53;24.90;51.20
24744;DHT22;12844;52.110;5.548;2022-09-09T18:50:18;24.90;51.20
24744;DHT22;12844;52.110;5.548;2022-09-09T18:52:44;24.90;51.20
24744;DHT22;12844;52.110;5.548;2022-09-09T18:55:09;24.90;51.20
24744;DHT22;12844;52.110;5.548;2022-09-09T18:57:35;24.90;51.20
24744;DHT22;12844;52.110;5.548;2022-09-09T19:00:04;24.90;51.20
24744;DHT22;12844;52.110;5.548;2022-09-09T19:02:29;24.80;51.20
24744;DHT22;12844;52.110;5.548;2022-09-09T19:04:55;24.80;51.20
24744;DHT22;12844;52.110;5.548;2022-09-09T19:07:21;24.90;51.20
24744;DHT22;12844;52.110;5.548;2022-09-09T19:09:47;24.80;51.20
24744;DHT22;12844;52.110;5.548;2022-09-09T19:12:13;24.80;51.20
24744;DHT22;12844;52.110;5.548;2022-09-09T19:14:38;24.80;51.20
24744;DHT22;12844;52.110;5.548;2022-09-09T19:17:04;24.80;51.20
24744;DHT22;12844;52.110;5.548;2022-09-09T19:19:31;24.80;51.20
24744;DHT22;12844;52.110;5.548;2022-09-09T19:21:58;24.80;51.20
24744;DHT22;12844;52.110;5.548;2022-09-09T19:24:26;24.80;51.20
24744;DHT22;12844;52.110;5.548;2022-09-09T19:26:55;24.80;51.20
24744;DHT22;12844;52.110;5.548;2022-09-09T19:29:24;24.80;51.20
24744;DHT22;12844;52.110;5.548;2022-09-09T19:31:51;24.80;51.20
24744;DHT22;12844;52.110;5.548;2022-09-09T19:34:17;24.80;51.20
24744;DHT22;12844;52.110;5.548;2022-09-09T19:36:44;24.80;51.20
24744;DHT22;12844;52.110;5.548;2022-09-09T19:39:11;24.80;51.20
24744;DHT22;12844;52.110;5.548;2022-09-09T19:41:37;24.80;51.20
24744;DHT22;12844;52.110;5.548;2022-09-09T19:44:04;24.80;51.20
24744;DHT22;12844;52.110;5.548;2022-09-09T19:46:33;24.80;51.10
24744;DHT22;12844;52.110;5.548;2022-09-09T19:48:59;24.80;51.20
24744;DHT22;12844;52.110;5.548;2022-09-09T19:51:27;24.80;51.20
24744;DHT22;12844;52.110;5.548;2022-09-09T19:54:00;24.80;51.20
24744;DHT22;12844;52.110;5.548;2022-09-09T19:56:28;24.80;51.20
24744;DHT22;12844;52.110;5.548;2022-09-09T19:58:54;24.80;51.20
24744;DHT22;12844;52.110;5.548;2022-09-09T20:01:25;24.80;51.10
24744;DHT22;12844;52.110;5.548;2022-09-09T20:03:52;24.80;51.10
24744;DHT22;12844;52.110;5.548;2022-09-09T20:06:21;24.80;51.20
24744;DHT22;12844;52.110;5.548;2022-09-09T20:08:48;24.80;51.10
24744;DHT22;12844;52.110;5.548;2022-09-09T20:11:15;24.80;51.10
24744;DHT22;12844;52.110;5.548;2022-09-09T20:13:41;24.80;51.30
24744;DHT22;12844;52.110;5.548;2022-09-09T20:16:12;24.80;51.10
24744;DHT22;12844;52.110;5.548;2022-09-09T20:18:43;24.80;51.10
24744;DHT22;12844;52.110;5.548;2022-09-09T20:21:12;24.80;51.10
24744;DHT22;12844;52.110;5.548;2022-09-09T20:23:40;24.70;51.10
24744;DHT22;12844;52.110;5.548;2022-09-09T20:26:08;24.80;51.10
24744;DHT22;12844;52.110;5.548;2022-09-09T20:28:35;24.70;51.10
24744;DHT22;12844;52.110;5.548;2022-09-09T20:31:11;24.70;51.10
24744;DHT22;12844;52.110;5.548;2022-09-09T20:33:37;24.70;51.10
24744;DHT22;12844;52.110;5.548;2022-09-09T20:36:12;24.70;51.10
24744;DHT22;12844;52.110;5.548;2022-09-09T20:38:49;24.70;51.00
24744;DHT22;12844;52.110;5.548;2022-09-09T20:41:16;24.70;51.10
24744;DHT22;12844;52.110;5.548;2022-09-09T20:44:03;24.70;51.10
24744;DHT22;12844;52.110;5.548;2022-09-09T20:46:32;24.70;51.00
24744;DHT22;12844;52.110;5.548;2022-09-09T20:48:58;24.70;51.10
24744;DHT22;12844;52.110;5.548;2022-09-09T20:51:24;24.70;51.10
24744;DHT22;12844;52.110;5.548;2022-09-09T20:53:58;24.70;51.10
24744;DHT22;12844;52.110;5.548;2022-09-09T20:56:25;24.70;51.00
24744;DHT22;12844;52.110;5.548;2022-09-09T20:58:52;24.70;51.10
24744;DHT22;12844;52.110;5.548;2022-09-09T21:01:19;24.70;51.10
24744;DHT22;12844;52.110;5.548;2022-09-09T21:03:45;24.70;51.10
24744;DHT22;12844;52.110;5.548;2022-09-09T21:06:11;24.70;51.10
24744;DHT22;12844;52.110;5.548;2022-09-09T21:08:38;24.70;51.10
24744;DHT22;12844;52.110;5.548;2022-09-09T21:11:04;24.70;51.10
24744;DHT22;12844;52.110;5.548;2022-09-09T21:13:35;24.70;51.10
24744;DHT22;12844;52.110;5.548;2022-09-09T21:16:02;24.70;51.10
24744;DHT22;12844;52.110;5.548;2022-09-09T21:18:27;24.70;51.10
24744;DHT22;12844;52.110;5.548;2022-09-09T21:20:54;24.70;51.10
24744;DHT22;12844;52.110;5.548;2022-09-09T21:23:19;24.70;51.10
24744;DHT22;12844;52.110;5.548;2022-09-09T21:25:45;24.70;51.10
24744;DHT22;12844;52.110;5.548;2022-09-09T21:28:12;24.70;51.10
24744;DHT22;12844;52.110;5.548;2022-09-09T21:30:38;24.70;51.00
24744;DHT22;12844;52.110;5.548;2022-09-09T21:33:07;24.70;51.10
24744;DHT22;12844;52.110;5.548;2022-09-09T21:35:35;24.60;51.00
24744;DHT22;12844;52.110;5.548;2022-09-09T21:38:01;24.70;51.10
24744;DHT22;12844;52.110;5.548;2022-09-09T21:40:28;24.60;51.00
24744;DHT22;12844;52.110;5.548;2022-09-09T21:42:53;24.60;51.00
24744;DHT22;12844;52.110;5.548;2022-09-09T21:45:19;24.70;51.10
24744;DHT22;12844;52.110;5.548;2022-09-09T21:47:45;24.60;51.00
24744;DHT22;12844;52.110;5.548;2022-09-09T21:50:15;24.70;51.00
24744;DHT22;12844;52.110;5.548;2022-09-09T21:52:41;24.70;51.00
24744;DHT22;12844;52.110;5.548;2022-09-09T21:55:06;24.60;51.00
24744;DHT22;12844;52.110;5.548;2022-09-09T21:57:33;24.60;51.00
24744;DHT22;12844;52.110;5.548;2022-09-09T21:59:59;24.60;51.00
24744;DHT22;12844;52.110;5.548;2022-09-09T22:02:26;24.60;51.00
24744;DHT22;12844;52.110;5.548;2022-09-09T22:04:52;24.60;51.00
24744;DHT22;12844;52.110;5.548;2022-09-09T22:07:17;24.60;51.00
24744;DHT22;12844;52.110;5.548;2022-09-09T22:09:43;24.60;51.00
24744;DHT22;12844;52.110;5.548;2022-09-09T22:12:09;24.60;51.00
24744;DHT22;12844;52.110;5.548;2022-09-09T22:14:35;24.60;51.00
24744;DHT22;12844;52.110;5.548;2022-09-09T22:17:01;24.60;51.00
24744;DHT22;12844;52.110;5.548;2022-09-09T22:19:27;24.60;51.00
24744;DHT22;12844;52.110;5.548;2022-09-09T22:21:52;24.60;51.00
24744;DHT22;12844;52.110;5.548;2022-09-09T22:24:18;24.60;51.00
24744;DHT22;12844;52.110;5.548;2022-09-09T22:26:44;24.60;51.00
24744;DHT22;12844;52.110;5.548;2022-09-09T22:29:09;24.60;51.00
24744;DHT22;12844;52.110;5.548;2022-09-09T22:31:39;24.60;51.00
24744;DHT22;12844;52.110;5.548;2022-09-09T22:34:05;24.60;51.00
24744;DHT22;12844;52.110;5.548;2022-09-09T22:36:31;24.60;51.00
24744;DHT22;12844;52.110;5.548;2022-09-09T22:38:57;24.60;51.00
